KOBE/OBE METAR and TAF weather

Enter ICAO airport designator
Station Type Date Time Source
KOBE METAR 2018/12/15 20:15 UTC NOAA

KOBE 152015Z AUTO 00000KT 10SM OVC032 19/18 A3003 RMK AO2


Station Type Date Time Source
KOBE Decoded METAR 2018/12/15 20:15 UTC NOAA

Okeechobee County Airport, FL, United States (KOBE) 27-15-60N 080-51-02W
Dec 15, 2018 - 03:15 PM EST / 2018.12.15 2015 UTC
Wind: Calm:0
Visibility: 10 mile(s):0
Sky conditions: overcast
Temperature: 66 F (19 C)
Dew Point: 64 F (18 C)
Relative Humidity: 93%
Pressure (altimeter): 30.03 in. Hg (1016 hPa)
ob: KOBE 152015Z AUTO 00000KT 10SM OVC032 19/18 A3003 RMK AO2
cycle: 20

Station Type Date Time Source
KOBE TAF UTC NOAA

Error!


Example: see airport list